Terminal Aerodrome Forecast
Issued by NWS

Home | Current Version | Previous Version | Text Only | Print | Product List | Glossary On
Versions: 1 2 3 4 5 6 7 8 9 10 11 12 13 14 15
861
FTUS45 KRIW 191729
TAFJAC
TAF
KJAC 191729Z 1918/2018 20020G28KT P6SM VCSH SCT025 BKN035
      TEMPO 1918/1920 20013G20KT
     FM200300 21011KT P6SM VCSH SCT025 BKN050
     FM200600 20009KT P6SM SCT024 BKN040 WS020/25035KT
     FM201600 20018G26KT P6SM VCSH SCT020 BKN035
      AMD LTD TO CLD VIS AND WIND=

USA.gov is the U.S. government's official web portal to all federal, state and local government web resources and services.